createdAt,value
2024-05-09T00:00:22.264Z,10.90
2024-05-09T00:01:16.096Z,10.87
2024-05-09T00:02:16.071Z,10.86
2024-05-09T00:03:16.091Z,10.86
2024-05-09T00:04:16.126Z,10.87
2024-05-09T00:05:16.158Z,10.89
2024-05-09T00:06:16.233Z,10.89
2024-05-09T00:07:16.145Z,10.90
2024-05-09T00:08:16.249Z,10.92
2024-05-09T00:09:16.161Z,10.90
2024-05-09T00:10:25.124Z,10.89
2024-05-09T00:11:16.259Z,10.89
2024-05-09T00:12:16.278Z,10.90
2024-05-09T00:13:16.200Z,10.92
2024-05-09T00:14:16.230Z,10.90
2024-05-09T00:15:16.210Z,10.89
2024-05-09T00:16:16.229Z,10.90
2024-05-09T00:17:16.457Z,10.90
2024-05-09T00:18:16.461Z,10.86
2024-05-09T00:19:16.511Z,10.84
2024-05-09T00:20:20.650Z,10.82
2024-05-09T00:21:16.438Z,10.81
2024-05-09T00:22:16.343Z,10.81
2024-05-09T00:23:16.427Z,10.81
2024-05-09T00:24:16.344Z,10.82
2024-05-09T00:25:16.352Z,10.82
2024-05-09T00:26:16.399Z,10.84
2024-05-09T00:27:16.421Z,10.84
2024-05-09T00:28:16.403Z,10.84
2024-05-09T00:29:16.618Z,10.86
2024-05-09T00:30:24.242Z,10.86
2024-05-09T00:31:16.446Z,10.86
2024-05-09T00:32:16.540Z,10.86
2024-05-09T00:33:16.768Z,10.87
2024-05-09T00:34:16.564Z,10.89
2024-05-09T00:35:16.533Z,10.89
2024-05-09T00:36:16.536Z,10.89
2024-05-09T00:37:16.551Z,10.87
2024-05-09T00:38:16.594Z,10.86
2024-05-09T00:39:16.562Z,10.84
2024-05-09T00:40:26.438Z,10.82
2024-05-09T00:41:19.675Z,10.82
2024-05-09T00:42:16.621Z,10.82
2024-05-09T00:43:16.631Z,10.82
2024-05-09T00:44:16.707Z,10.86
2024-05-09T00:45:16.661Z,10.89
2024-05-09T00:46:16.706Z,10.90
2024-05-09T00:47:16.756Z,10.89
2024-05-09T00:48:19.742Z,10.89
2024-05-09T00:49:16.861Z,10.87
2024-05-09T00:50:22.746Z,10.86
2024-05-09T00:51:16.889Z,10.82
2024-05-09T00:52:16.805Z,10.79
2024-05-09T00:53:16.831Z,10.79
2024-05-09T00:54:16.819Z,10.79
2024-05-09T00:55:16.829Z,10.79
2024-05-09T00:56:16.880Z,10.81
2024-05-09T00:57:16.840Z,10.82
2024-05-09T00:58:16.875Z,10.82
2024-05-09T00:59:16.935Z,10.79
2024-05-09T01:00:26.201Z,10.79
2024-05-09T01:01:16.975Z,10.79
2024-05-09T01:02:17.107Z,10.79
2024-05-09T01:03:17.252Z,10.79
2024-05-09T01:04:16.999Z,10.79
2024-05-09T01:05:17.058Z,10.81
2024-05-09T01:06:16.969Z,10.81
2024-05-09T01:07:16.980Z,10.82
2024-05-09T01:08:17.028Z,10.82
2024-05-09T01:09:17.029Z,10.86
2024-05-09T01:10:21.327Z,10.86
2024-05-09T01:11:17.154Z,10.87
2024-05-09T01:12:17.190Z,10.89
2024-05-09T01:13:17.062Z,10.89
2024-05-09T01:14:17.218Z,10.87
2024-05-09T01:15:17.085Z,10.84
2024-05-09T01:16:17.106Z,10.86
2024-05-09T01:17:17.192Z,10.86
2024-05-09T01:18:17.271Z,10.86
2024-05-09T01:19:17.349Z,10.89
2024-05-09T01:20:22.874Z,10.89
2024-05-09T01:21:17.368Z,10.89
2024-05-09T01:22:17.200Z,10.89
2024-05-09T01:23:17.278Z,10.87
2024-05-09T01:24:17.226Z,10.87
2024-05-09T01:25:17.235Z,10.86
2024-05-09T01:26:17.315Z,10.82
2024-05-09T01:27:17.266Z,10.81
2024-05-09T01:28:17.300Z,10.82
2024-05-09T01:29:17.331Z,10.79
2024-05-09T01:30:21.350Z,10.79
2024-05-09T01:31:17.315Z,10.79
2024-05-09T01:32:17.449Z,10.79
2024-05-09T01:33:17.476Z,10.79
2024-05-09T01:34:17.447Z,10.79
2024-05-09T01:35:17.421Z,10.79
2024-05-09T01:36:17.389Z,10.78
2024-05-09T01:37:17.423Z,10.76
2024-05-09T01:38:17.784Z,10.75
2024-05-09T01:39:17.440Z,10.76
2024-05-09T01:40:22.104Z,10.76
2024-05-09T01:41:17.521Z,10.78
2024-05-09T01:42:17.508Z,10.78
2024-05-09T01:43:17.500Z,10.78
2024-05-09T01:44:17.551Z,10.79
2024-05-09T01:45:23.536Z,10.78
2024-05-09T01:46:17.566Z,10.81
2024-05-09T01:47:17.729Z,10.81
2024-05-09T01:48:17.764Z,10.81
2024-05-09T01:49:17.800Z,10.81
2024-05-09T01:50:22.493Z,10.82
2024-05-09T01:51:17.704Z,10.79
2024-05-09T01:52:17.652Z,10.78
2024-05-09T01:53:17.723Z,10.76
2024-05-09T01:54:17.670Z,10.76
2024-05-09T01:55:17.677Z,10.75
2024-05-09T01:57:17.710Z,10.78
2024-05-09T01:58:17.748Z,10.78
2024-05-09T01:59:48.071Z,10.78
2024-05-09T02:00:26.256Z,10.76
2024-05-09T02:01:17.830Z,10.72
2024-05-09T02:02:17.980Z,10.68
2024-05-09T02:03:18.407Z,10.64
2024-05-09T02:04:18.058Z,10.64
2024-05-09T02:05:18.040Z,10.64
2024-05-09T02:06:17.913Z,10.67
2024-05-09T02:07:17.859Z,10.67
2024-05-09T02:08:18.522Z,10.68
2024-05-09T02:09:17.887Z,10.71
2024-05-09T02:10:23.512Z,10.69
2024-05-09T02:11:17.994Z,10.69
2024-05-09T02:12:18.069Z,10.71
2024-05-09T02:13:17.996Z,10.72
2024-05-09T02:14:18.042Z,10.72
2024-05-09T02:15:17.982Z,10.69
2024-05-09T02:16:18.003Z,10.64
2024-05-09T02:17:18.089Z,10.63
2024-05-09T02:18:18.162Z,10.63
2024-05-09T02:19:18.374Z,10.67
2024-05-09T02:20:27.159Z,10.64
2024-05-09T02:21:18.073Z,10.64
2024-05-09T02:22:18.088Z,10.67
2024-05-09T02:23:18.253Z,10.63
2024-05-09T02:24:18.112Z,10.63
2024-05-09T02:25:18.119Z,10.63
2024-05-09T02:26:18.230Z,10.63
2024-05-09T02:27:18.156Z,10.63
2024-05-09T02:28:18.195Z,10.60
2024-05-09T02:29:18.231Z,10.59
2024-05-09T02:30:25.966Z,10.59
2024-05-09T02:31:18.222Z,10.57
2024-05-09T02:32:18.311Z,10.54
2024-05-09T02:33:18.382Z,10.54
2024-05-09T02:34:18.322Z,10.54
2024-05-09T02:35:18.300Z,10.51
2024-05-09T02:36:18.279Z,10.49
2024-05-09T02:37:18.299Z,10.51
2024-05-09T02:38:18.390Z,10.49
2024-05-09T02:39:18.323Z,10.48
2024-05-09T02:40:25.409Z,10.48
2024-05-09T02:41:18.410Z,10.49
2024-05-09T02:42:18.372Z,10.49
2024-05-09T02:43:18.420Z,10.49
2024-05-09T02:44:18.483Z,10.49
2024-05-09T02:45:18.414Z,10.51
2024-05-09T02:46:18.503Z,10.49
2024-05-09T02:47:18.549Z,10.49
2024-05-09T02:48:18.662Z,10.46
2024-05-09T02:49:18.614Z,10.46
2024-05-09T02:50:26.590Z,10.46
2024-05-09T02:51:18.537Z,10.44
2024-05-09T02:52:18.533Z,10.42
2024-05-09T02:53:18.639Z,10.44
2024-05-09T02:54:18.570Z,10.46
2024-05-09T02:55:18.561Z,10.48
2024-05-09T02:56:18.641Z,10.48
2024-05-09T02:57:18.598Z,10.44
2024-05-09T02:58:18.652Z,10.46
2024-05-09T02:59:18.761Z,10.49
2024-05-09T03:00:22.962Z,10.48
2024-05-09T03:01:18.688Z,10.49
2024-05-09T03:02:18.768Z,10.49
2024-05-09T03:03:18.979Z,10.44
2024-05-09T03:04:18.758Z,10.44
2024-05-09T03:05:18.910Z,10.44
2024-05-09T03:06:18.741Z,10.42
2024-05-09T03:07:20.239Z,10.42
2024-05-09T03:08:18.789Z,10.48
2024-05-09T03:09:18.772Z,10.48
2024-05-09T03:10:25.376Z,10.48
2024-05-09T03:11:18.847Z,10.49
2024-05-09T03:12:18.938Z,10.48
2024-05-09T03:13:18.826Z,10.49
2024-05-09T03:14:18.899Z,10.51
2024-05-09T03:15:18.855Z,10.48
2024-05-09T03:16:18.876Z,10.42
2024-05-09T03:17:18.989Z,10.44
2024-05-09T03:18:19.016Z,10.48
2024-05-09T03:19:19.051Z,10.44
2024-05-09T03:20:23.894Z,10.44
2024-05-09T03:21:18.987Z,10.44
2024-05-09T03:22:19.001Z,10.44
2024-05-09T03:23:19.013Z,10.41
2024-05-09T03:24:18.995Z,10.41
2024-05-09T03:25:19.006Z,10.41
2024-05-09T03:26:19.083Z,10.38
2024-05-09T03:27:19.053Z,10.38
2024-05-09T03:28:19.048Z,10.38
2024-05-09T03:29:19.151Z,10.37
2024-05-09T03:30:26.168Z,10.37
2024-05-09T03:31:19.078Z,10.38
2024-05-09T03:32:19.244Z,10.37
2024-05-09T03:33:20.447Z,10.37
2024-05-09T03:34:19.223Z,10.40
2024-05-09T03:35:19.253Z,10.44
2024-05-09T03:36:19.163Z,10.42
2024-05-09T03:37:19.172Z,10.40
2024-05-09T03:38:19.231Z,10.38
2024-05-09T03:39:19.191Z,10.37
2024-05-09T03:40:23.698Z,10.38
2024-05-09T03:41:19.327Z,10.40
2024-05-09T03:42:19.260Z,10.40
2024-05-09T03:43:19.527Z,10.40
2024-05-09T03:44:19.326Z,10.38
2024-05-09T03:45:19.291Z,10.40
2024-05-09T03:46:19.341Z,10.42
2024-05-09T03:47:19.375Z,10.46
2024-05-09T03:48:19.686Z,10.46
2024-05-09T03:49:19.611Z,10.48
2024-05-09T03:50:26.132Z,10.48
2024-05-09T03:51:19.417Z,10.44
2024-05-09T03:52:19.382Z,10.44
2024-05-09T03:53:19.446Z,10.46
2024-05-09T03:54:19.408Z,10.42
2024-05-09T03:55:19.428Z,10.40
2024-05-09T03:56:19.532Z,10.37
2024-05-09T03:57:19.445Z,10.37
2024-05-09T03:58:19.460Z,10.37
2024-05-09T03:59:19.529Z,10.35
2024-05-09T04:00:26.562Z,10.35
2024-05-09T04:01:19.624Z,10.34
2024-05-09T04:02:19.594Z,10.33
2024-05-09T04:03:19.709Z,10.34
2024-05-09T04:04:19.585Z,10.34
2024-05-09T04:05:19.600Z,10.33
2024-05-09T04:06:19.744Z,10.31
2024-05-09T04:07:19.597Z,10.34
2024-05-09T04:08:19.643Z,10.31
2024-05-09T04:09:19.612Z,10.25
2024-05-09T04:10:27.718Z,10.22
2024-05-09T04:11:19.839Z,10.23
2024-05-09T04:12:19.697Z,10.30
2024-05-09T04:13:19.677Z,10.33
2024-05-09T04:14:19.715Z,10.33
2024-05-09T04:15:19.699Z,10.33
2024-05-09T04:16:19.736Z,10.31
2024-05-09T04:17:19.765Z,10.34
2024-05-09T04:18:19.847Z,10.31
2024-05-09T04:19:19.998Z,10.28
2024-05-09T04:20:29.279Z,10.28
2024-05-09T04:21:19.823Z,10.26
2024-05-09T04:22:19.818Z,10.30
2024-05-09T04:23:19.870Z,10.30
2024-05-09T04:24:19.843Z,10.26
2024-05-09T04:25:19.854Z,10.25
2024-05-09T04:26:19.934Z,10.26
2024-05-09T04:27:19.878Z,10.25
2024-05-09T04:28:19.900Z,10.25
2024-05-09T04:29:19.985Z,10.28
2024-05-09T04:30:26.474Z,10.28
2024-05-09T04:31:19.968Z,10.26
2024-05-09T04:32:20.044Z,10.25
2024-05-09T04:33:20.403Z,10.23
2024-05-09T04:34:20.071Z,10.23
2024-05-09T04:35:20.086Z,10.25
2024-05-09T04:36:20.023Z,10.25
2024-05-09T04:37:20.029Z,10.26
2024-05-09T04:38:20.133Z,10.28
2024-05-09T04:39:20.058Z,10.26
2024-05-09T04:40:28.121Z,10.26
2024-05-09T04:41:20.194Z,10.23
2024-05-09T04:42:20.113Z,10.25
2024-05-09T04:43:20.109Z,10.25
2024-05-09T04:44:20.239Z,10.26
2024-05-09T04:45:20.147Z,10.26
2024-05-09T04:46:20.162Z,10.25
2024-05-09T04:47:20.320Z,10.26
2024-05-09T04:48:20.334Z,10.28
2024-05-09T04:49:20.288Z,10.31
2024-05-09T04:50:29.347Z,10.30
2024-05-09T04:51:20.222Z,10.33
2024-05-09T04:52:20.239Z,10.35
2024-05-09T04:53:20.268Z,10.37
2024-05-09T04:55:20.309Z,10.41
2024-05-09T04:56:20.340Z,10.44
2024-05-09T04:57:20.320Z,10.48
2024-05-09T04:58:20.343Z,10.49
2024-05-09T04:59:20.399Z,10.51
2024-05-09T05:00:28.501Z,10.49
2024-05-09T05:01:20.391Z,10.49
2024-05-09T05:02:20.425Z,10.53
2024-05-09T05:03:20.532Z,10.56
2024-05-09T05:04:20.512Z,10.56
2024-05-09T05:05:20.512Z,10.53
2024-05-09T05:06:20.451Z,10.51
2024-05-09T05:07:20.462Z,10.51
2024-05-09T05:08:20.511Z,10.49
2024-05-09T05:09:20.491Z,10.54
2024-05-09T05:10:25.516Z,10.54
2024-05-09T05:11:20.591Z,10.56
2024-05-09T05:12:20.639Z,10.56
2024-05-09T05:13:21.893Z,10.59
2024-05-09T05:14:20.704Z,10.60
2024-05-09T05:15:20.609Z,10.59
2024-05-09T05:16:20.604Z,10.59
2024-05-09T05:17:20.760Z,10.61
2024-05-09T05:18:20.743Z,10.61
2024-05-09T05:19:20.829Z,10.61
2024-05-09T05:20:27.495Z,10.61
2024-05-09T05:21:20.810Z,10.61
2024-05-09T05:22:20.692Z,10.59
2024-05-09T05:23:20.790Z,10.61
2024-05-09T05:24:20.727Z,10.64
2024-05-09T05:25:20.762Z,10.67
2024-05-09T05:26:20.816Z,10.69
2024-05-09T05:27:20.767Z,10.71
2024-05-09T05:28:20.786Z,10.75
2024-05-09T05:29:21.137Z,10.74
2024-05-09T05:30:25.328Z,10.72
2024-05-09T05:31:20.860Z,10.74
2024-05-09T05:32:21.013Z,10.75
2024-05-09T05:33:21.036Z,10.76
2024-05-09T05:34:20.878Z,10.78
2024-05-09T05:35:21.022Z,10.81
2024-05-09T05:36:20.902Z,10.84
2024-05-09T05:37:20.926Z,10.82
2024-05-09T05:38:24.856Z,10.81
2024-05-09T05:39:20.957Z,10.81
2024-05-09T05:40:28.296Z,10.84
2024-05-09T05:41:21.053Z,10.84
2024-05-09T05:42:21.002Z,10.87
2024-05-09T05:43:21.009Z,10.87
2024-05-09T05:44:21.077Z,10.84
2024-05-09T05:45:21.051Z,10.90
2024-05-09T05:46:21.056Z,10.93
2024-05-09T05:47:21.141Z,10.96
2024-05-09T05:48:21.283Z,10.99
2024-05-09T05:49:21.319Z,11.02
2024-05-09T05:50:27.870Z,11.05
2024-05-09T05:51:21.304Z,11.10
2024-05-09T05:52:21.166Z,11.11
2024-05-09T05:53:21.214Z,11.14
2024-05-09T05:54:21.172Z,11.15
2024-05-09T05:55:21.214Z,11.15
2024-05-09T05:56:21.241Z,11.17
2024-05-09T05:57:21.235Z,11.19
2024-05-09T05:58:21.229Z,11.17
2024-05-09T05:59:21.289Z,11.15
2024-05-09T06:00:29.116Z,11.18
2024-05-09T06:01:21.334Z,11.18
2024-05-09T06:02:21.349Z,11.22
2024-05-09T06:03:21.366Z,11.23
2024-05-09T06:04:21.382Z,11.27
2024-05-09T06:05:21.422Z,11.32
2024-05-09T06:06:21.361Z,11.36
2024-05-09T06:07:21.391Z,11.37
2024-05-09T06:08:21.616Z,11.40
2024-05-09T06:09:21.449Z,11.36
2024-05-09T06:10:25.935Z,11.37
2024-05-09T06:11:21.532Z,11.36
2024-05-09T06:12:21.531Z,11.41
2024-05-09T06:13:21.464Z,11.44
2024-05-09T06:14:21.514Z,11.45
2024-05-09T06:15:21.495Z,11.45
2024-05-09T06:16:21.500Z,11.45
2024-05-09T06:17:21.772Z,11.51
2024-05-09T06:18:22.019Z,11.54
2024-05-09T06:19:21.700Z,11.52
2024-05-09T06:20:31.096Z,11.59
2024-05-09T06:21:21.727Z,11.63
2024-05-09T06:22:21.615Z,11.68
2024-05-09T06:23:21.749Z,11.70
2024-05-09T06:24:21.660Z,11.73
2024-05-09T06:25:21.683Z,11.86
2024-05-09T06:26:21.717Z,11.91
2024-05-09T06:27:21.674Z,11.97
2024-05-09T06:28:21.699Z,11.99
2024-05-09T06:29:21.747Z,12.04
2024-05-09T06:30:29.914Z,12.07
2024-05-09T06:31:21.735Z,12.09
2024-05-09T06:32:21.969Z,12.12
2024-05-09T06:33:21.944Z,12.13
2024-05-09T06:34:21.888Z,12.13
2024-05-09T06:35:21.835Z,12.12
2024-05-09T06:36:21.795Z,12.13
2024-05-09T06:37:21.827Z,12.13
2024-05-09T06:38:21.883Z,12.12
2024-05-09T06:39:21.861Z,12.12
2024-05-09T06:40:25.869Z,12.15
2024-05-09T06:41:21.907Z,12.20
2024-05-09T06:42:21.895Z,12.24
2024-05-09T06:43:21.936Z,12.22
2024-05-09T06:44:21.961Z,12.25
2024-05-09T06:45:22.024Z,12.29
2024-05-09T06:46:21.975Z,12.35
2024-05-09T06:47:22.154Z,12.36
2024-05-09T06:48:22.805Z,12.32
2024-05-09T06:49:22.286Z,12.29
2024-05-09T06:50:24.431Z,12.28
2024-05-09T06:51:22.082Z,12.31
2024-05-09T06:52:22.091Z,12.36
2024-05-09T06:53:22.171Z,12.42
2024-05-09T06:54:22.094Z,12.49
2024-05-09T06:55:22.130Z,12.47
2024-05-09T06:56:22.152Z,12.47
2024-05-09T06:57:22.194Z,12.55
2024-05-09T06:58:22.195Z,12.49
2024-05-09T06:59:22.316Z,12.57
2024-05-09T07:00:30.203Z,12.72
2024-05-09T07:01:22.219Z,12.82
2024-05-09T07:02:22.344Z,12.93
2024-05-09T07:03:22.416Z,12.98
2024-05-09T07:04:22.372Z,13.04
2024-05-09T07:05:22.490Z,13.09
2024-05-09T07:06:22.290Z,13.11
2024-05-09T07:07:22.322Z,13.19
2024-05-09T07:08:22.409Z,13.19
2024-05-09T07:09:22.328Z,13.18
2024-05-09T07:10:28.887Z,13.23
2024-05-09T07:11:22.543Z,13.23
2024-05-09T07:12:22.459Z,13.25
2024-05-09T07:13:22.399Z,13.25
2024-05-09T07:14:22.631Z,13.22
2024-05-09T07:15:22.436Z,13.25
2024-05-09T07:16:22.441Z,13.30
2024-05-09T07:17:22.657Z,13.27
2024-05-09T07:18:22.729Z,13.23
2024-05-09T07:19:22.559Z,13.20
2024-05-09T07:20:31.773Z,13.16
2024-05-09T07:21:22.582Z,13.22
2024-05-09T07:22:22.564Z,13.30
2024-05-09T07:23:22.592Z,13.28
2024-05-09T07:24:22.570Z,13.28
2024-05-09T07:25:22.591Z,13.25
2024-05-09T07:26:22.637Z,13.20
2024-05-09T07:27:22.651Z,13.23
2024-05-09T07:28:22.633Z,13.27
2024-05-09T07:29:22.733Z,13.27
2024-05-09T07:30:27.773Z,13.30
2024-05-09T07:31:22.692Z,13.35
2024-05-09T07:32:22.861Z,13.41
2024-05-09T07:33:24.124Z,13.41
2024-05-09T07:34:22.813Z,13.46
2024-05-09T07:35:22.772Z,13.52
2024-05-09T07:36:22.755Z,13.53
2024-05-09T07:37:22.793Z,13.60
2024-05-09T07:38:22.823Z,13.65
2024-05-09T07:39:22.827Z,13.67
2024-05-09T07:40:32.312Z,13.71
2024-05-09T07:41:22.873Z,13.75
2024-05-09T07:42:22.874Z,13.63
2024-05-09T07:43:22.878Z,13.53
2024-05-09T07:44:22.893Z,13.52
2024-05-09T07:45:41.665Z,13.62
2024-05-09T07:47:17.259Z,13.68
2024-05-09T07:50:34.311Z,13.75
2024-05-09T07:53:32.464Z,13.90
2024-05-09T07:53:49.300Z,14.04
2024-05-09T07:54:00.446Z,14.10
2024-05-09T07:54:56.284Z,14.17
2024-05-09T07:55:56.747Z,14.17
2024-05-09T07:56:56.308Z,14.18
2024-05-09T07:57:56.052Z,14.07
2024-05-09T07:58:56.480Z,13.97
2024-05-09T07:59:56.001Z,13.93
2024-05-09T08:00:56.228Z,13.83
2024-05-09T08:01:56.232Z,13.75
2024-05-09T08:02:56.220Z,13.71
2024-05-09T08:03:56.362Z,13.65
2024-05-09T08:04:56.248Z,13.60
2024-05-09T08:05:56.146Z,13.72
2024-05-09T08:06:56.186Z,13.81
2024-05-09T08:07:56.141Z,13.92
2024-05-09T08:08:56.953Z,13.97
2024-05-09T08:09:56.257Z,14.10
2024-05-09T08:10:56.215Z,14.18
2024-05-09T08:11:56.285Z,14.26
2024-05-09T08:12:56.252Z,14.35
2024-05-09T08:13:56.225Z,14.47
2024-05-09T08:14:56.238Z,14.59
2024-05-09T08:15:56.390Z,14.69
2024-05-09T08:16:56.332Z,14.72
2024-05-09T08:17:56.652Z,14.78
2024-05-09T08:18:56.392Z,14.82
2024-05-09T08:19:56.317Z,14.82
2024-05-09T08:20:56.350Z,14.86
2024-05-09T08:21:56.364Z,14.91
2024-05-09T08:22:56.353Z,14.78
2024-05-09T08:23:56.364Z,14.72
2024-05-09T08:24:56.441Z,14.73
2024-05-09T08:25:56.422Z,14.84
2024-05-09T08:26:56.423Z,14.85
2024-05-09T08:27:56.454Z,14.89
2024-05-09T08:28:56.445Z,14.85
2024-05-09T08:29:56.523Z,14.84
2024-05-09T08:30:56.627Z,14.81
2024-05-09T08:31:56.631Z,14.79
2024-05-09T08:32:56.723Z,14.82
2024-05-09T08:33:56.713Z,14.72
2024-05-09T08:34:56.584Z,14.77
2024-05-09T08:35:56.569Z,14.81
2024-05-09T08:36:59.701Z,14.68
2024-05-09T08:37:56.723Z,14.60
2024-05-09T08:38:56.597Z,14.53
2024-05-09T08:39:56.760Z,14.50
2024-05-09T08:40:56.730Z,14.41
2024-05-09T08:41:56.652Z,14.35
2024-05-09T08:42:56.786Z,14.29
2024-05-09T08:43:56.677Z,14.28
2024-05-09T08:44:56.690Z,14.29
2024-05-09T08:45:56.839Z,14.26
2024-05-09T08:46:56.718Z,14.26
2024-05-09T08:47:56.870Z,14.23
2024-05-09T08:48:56.950Z,14.23
2024-05-09T08:49:56.896Z,14.20
2024-05-09T08:50:56.811Z,14.23
2024-05-09T08:51:56.819Z,14.36
2024-05-09T08:52:56.836Z,14.50
2024-05-09T08:53:56.827Z,14.45
2024-05-09T08:54:56.884Z,14.45
2024-05-09T08:55:56.891Z,14.45
2024-05-09T08:56:56.889Z,14.62
2024-05-09T08:57:56.923Z,14.79
2024-05-09T08:58:56.918Z,14.86
2024-05-09T08:59:56.922Z,14.97
2024-05-09T09:00:57.090Z,15.03
2024-05-09T09:01:57.041Z,15.14
2024-05-09T09:02:57.027Z,15.25
2024-05-09T09:03:57.086Z,15.39
2024-05-09T09:04:57.080Z,15.55
2024-05-09T09:05:57.039Z,15.65
2024-05-09T09:06:58.320Z,15.76
2024-05-09T09:07:57.046Z,15.83
2024-05-09T09:08:57.065Z,15.84
2024-05-09T09:09:57.159Z,15.83
2024-05-09T09:10:57.156Z,15.92
2024-05-09T09:11:57.126Z,16.05
2024-05-09T09:12:57.168Z,16.12
2024-05-09T09:13:57.142Z,16.10
2024-05-09T09:14:57.158Z,16.17
2024-05-09T09:15:57.406Z,16.21
2024-05-09T09:16:57.188Z,16.09
2024-05-09T09:17:57.334Z,15.84
2024-05-09T09:18:57.511Z,15.68
2024-05-09T09:19:57.312Z,15.61
2024-05-09T09:20:57.278Z,15.67
2024-05-09T09:21:57.326Z,15.58
2024-05-09T09:22:57.279Z,15.39
2024-05-09T09:23:57.289Z,15.31
2024-05-09T09:24:57.453Z,15.27
2024-05-09T09:25:57.344Z,15.31
2024-05-09T09:26:57.345Z,15.44
2024-05-09T09:27:57.404Z,15.59
2024-05-09T09:28:57.371Z,15.72
2024-05-09T09:29:57.400Z,15.84
2024-05-09T09:30:57.430Z,15.94
2024-05-09T09:31:57.403Z,16.04
2024-05-09T09:32:57.497Z,16.17
2024-05-09T09:33:57.859Z,16.28
2024-05-09T09:34:57.535Z,16.36
2024-05-09T09:35:57.463Z,16.38
2024-05-09T09:36:57.570Z,16.36
2024-05-09T09:37:57.514Z,16.32
2024-05-09T09:38:57.517Z,16.15
2024-05-09T09:39:57.658Z,16.00
2024-05-09T09:40:57.551Z,15.95
2024-05-09T09:41:57.560Z,15.94
2024-05-09T09:42:57.652Z,15.84
2024-05-09T09:43:57.589Z,15.73
2024-05-09T09:45:04.349Z,15.65
2024-05-09T09:45:57.646Z,15.65
2024-05-09T09:46:57.656Z,15.65
2024-05-09T09:47:57.722Z,15.68
2024-05-09T09:48:57.774Z,15.68
2024-05-09T09:49:57.720Z,15.62
2024-05-09T09:50:57.693Z,15.64
2024-05-09T09:51:57.735Z,15.55
2024-05-09T09:52:57.730Z,15.58
2024-05-09T09:53:57.751Z,15.61
2024-05-09T09:54:57.852Z,15.58
2024-05-09T09:55:57.789Z,15.68
2024-05-09T09:56:57.791Z,15.82
2024-05-09T09:57:57.845Z,15.95
2024-05-09T09:58:57.823Z,16.05
2024-05-09T09:59:57.873Z,16.21
2024-05-09T10:00:57.972Z,16.39
2024-05-09T10:01:58.043Z,16.53
2024-05-09T10:02:57.939Z,16.60
2024-05-09T10:03:58.102Z,16.71
2024-05-09T10:04:58.102Z,16.84
2024-05-09T10:05:58.048Z,16.89
2024-05-09T10:06:58.042Z,16.87
2024-05-09T10:07:57.989Z,16.74
2024-05-09T10:08:57.991Z,16.61
2024-05-09T10:09:58.061Z,16.51
2024-05-09T10:10:58.165Z,16.42
2024-05-09T10:12:00.365Z,16.38
2024-05-09T10:12:58.124Z,16.33
2024-05-09T10:13:58.067Z,16.31
2024-05-09T10:14:58.068Z,16.29
2024-05-09T10:15:58.117Z,16.26
2024-05-09T10:16:58.094Z,16.20
2024-05-09T10:17:58.205Z,16.15
2024-05-09T10:18:58.447Z,16.05
2024-05-09T10:19:58.208Z,15.94
2024-05-09T10:20:58.202Z,15.91
2024-05-09T10:21:58.199Z,15.86
2024-05-09T10:22:58.186Z,15.86
2024-05-09T10:23:58.192Z,15.83
2024-05-09T10:24:58.462Z,15.77
2024-05-09T10:25:58.212Z,15.76
2024-05-09T10:26:58.222Z,15.76
2024-05-09T10:27:58.404Z,15.79
2024-05-09T10:28:58.248Z,15.75
2024-05-09T10:29:58.269Z,15.76
2024-05-09T10:30:58.314Z,15.75
2024-05-09T10:31:58.314Z,15.77
2024-05-09T10:32:58.406Z,15.79
2024-05-09T10:33:58.539Z,15.80
2024-05-09T10:34:58.405Z,15.84
2024-05-09T10:35:58.365Z,15.86
2024-05-09T10:36:58.662Z,15.83
2024-05-09T10:37:58.391Z,15.70
2024-05-09T10:38:58.407Z,15.67
2024-05-09T10:39:58.468Z,15.67
2024-05-09T10:40:58.445Z,15.58
2024-05-09T10:41:58.450Z,15.52
2024-05-09T10:42:59.187Z,15.51
2024-05-09T10:43:58.484Z,15.52
2024-05-09T10:44:58.496Z,15.55
2024-05-09T10:45:58.569Z,15.57
2024-05-09T10:46:58.573Z,15.59
2024-05-09T10:47:58.718Z,15.61
2024-05-09T10:48:59.650Z,15.64
2024-05-09T10:49:58.628Z,15.67
2024-05-09T10:50:58.604Z,15.64
2024-05-09T10:51:58.653Z,15.58
2024-05-09T10:52:58.614Z,15.52
2024-05-09T10:53:58.631Z,15.51
2024-05-09T10:54:59.915Z,15.51
2024-05-09T10:55:58.676Z,15.54
2024-05-09T10:56:58.662Z,15.58
2024-05-09T10:57:58.707Z,15.61
2024-05-09T10:58:58.694Z,15.61
2024-05-09T10:59:58.730Z,15.67
2024-05-09T11:00:59.384Z,15.70
2024-05-09T11:01:58.797Z,15.75
2024-05-09T11:02:58.807Z,15.82
2024-05-09T11:03:58.911Z,15.83
2024-05-09T11:04:58.891Z,15.86
2024-05-09T11:05:58.839Z,15.90
2024-05-09T11:06:59.591Z,15.94
2024-05-09T11:07:58.832Z,15.98
2024-05-09T11:08:58.873Z,15.97
2024-05-09T11:09:58.931Z,16.02
2024-05-09T11:10:58.884Z,16.08
2024-05-09T11:11:58.936Z,16.16
2024-05-09T11:12:58.946Z,16.21
2024-05-09T11:13:58.968Z,16.23
2024-05-09T11:14:58.931Z,16.17
2024-05-09T11:15:59.157Z,16.09
2024-05-09T11:16:58.963Z,16.13
2024-05-09T11:17:59.060Z,16.17
2024-05-09T11:18:59.525Z,16.24
2024-05-09T11:19:59.133Z,16.24
2024-05-09T11:20:59.011Z,16.17
2024-05-09T11:21:59.046Z,16.23
2024-05-09T11:22:59.064Z,16.32
2024-05-09T11:23:59.087Z,16.36
2024-05-09T11:24:59.116Z,16.41
2024-05-09T11:25:59.338Z,16.46
2024-05-09T11:26:59.105Z,16.50
2024-05-09T11:27:59.231Z,16.47
2024-05-09T11:28:59.132Z,16.53
2024-05-09T11:29:59.149Z,16.61
2024-05-09T11:30:59.179Z,16.69
2024-05-09T11:31:59.191Z,16.71
2024-05-09T11:32:59.418Z,16.72
2024-05-09T11:33:59.302Z,16.71
2024-05-09T11:34:59.207Z,16.76
2024-05-09T11:35:59.237Z,16.81
2024-05-09T11:36:59.349Z,16.87
2024-05-09T11:37:59.284Z,16.93
2024-05-09T11:38:59.269Z,16.91
2024-05-09T11:39:59.376Z,16.94
2024-05-09T11:40:59.325Z,16.97
2024-05-09T11:41:59.363Z,16.97
2024-05-09T11:42:59.455Z,16.90
2024-05-09T11:43:59.373Z,16.91
2024-05-09T11:44:59.384Z,16.96
2024-05-09T11:45:59.463Z,16.99
2024-05-09T11:46:59.416Z,16.94
2024-05-09T11:47:59.509Z,16.90
2024-05-09T11:48:59.640Z,16.93
2024-05-09T11:49:59.735Z,16.93
2024-05-09T11:50:59.510Z,16.91
2024-05-09T11:51:59.577Z,16.96
2024-05-09T11:52:59.477Z,17.08
2024-05-09T11:53:59.497Z,17.15
2024-05-09T11:54:59.565Z,17.16
2024-05-09T11:55:59.544Z,17.24
2024-05-09T11:56:59.575Z,17.48
2024-05-09T11:57:59.627Z,17.56
2024-05-09T11:58:59.571Z,17.54
2024-05-09T11:59:59.586Z,17.57
2024-05-09T12:00:59.755Z,17.48
2024-05-09T12:01:59.742Z,17.33
2024-05-09T12:02:59.688Z,17.33
2024-05-09T12:03:59.956Z,17.42
2024-05-09T12:04:59.742Z,17.39
2024-05-09T12:05:59.793Z,17.39
2024-05-09T12:06:59.870Z,17.48
2024-05-09T12:07:59.703Z,17.49
2024-05-09T12:08:59.719Z,17.51
2024-05-09T12:09:59.768Z,17.48
2024-05-09T12:10:59.919Z,17.45
2024-05-09T12:11:59.775Z,17.63
2024-05-09T12:12:59.809Z,17.74
2024-05-09T12:13:59.791Z,17.70
2024-05-09T12:14:59.800Z,17.74
2024-05-09T12:15:59.875Z,17.72
2024-05-09T12:16:59.861Z,17.72
2024-05-09T12:18:02.804Z,17.90
2024-05-09T12:18:59.956Z,18.01
2024-05-09T12:19:59.872Z,17.83
2024-05-09T12:20:59.903Z,17.64
2024-05-09T12:21:59.920Z,17.41
2024-05-09T12:22:59.913Z,17.26
2024-05-09T12:23:59.931Z,17.22
2024-05-09T12:24:59.992Z,17.22
2024-05-09T12:25:59.980Z,17.12
2024-05-09T12:26:59.975Z,17.04
2024-05-09T12:28:00.509Z,17.08
2024-05-09T12:29:00.027Z,17.12
2024-05-09T12:30:00.049Z,17.26
2024-05-09T12:31:00.119Z,17.51
2024-05-09T12:32:00.083Z,17.82
2024-05-09T12:33:00.193Z,18.00
2024-05-09T12:34:00.213Z,18.18
2024-05-09T12:35:00.194Z,18.41
2024-05-09T12:36:00.177Z,18.62
2024-05-09T12:37:00.195Z,18.77
2024-05-09T12:38:00.392Z,18.70
2024-05-09T12:39:00.170Z,18.58
2024-05-09T12:40:00.287Z,18.52
2024-05-09T12:41:00.290Z,18.34
2024-05-09T12:42:00.215Z,18.19
2024-05-09T12:43:00.254Z,18.08
2024-05-09T12:44:00.239Z,18.07
2024-05-09T12:45:00.246Z,18.04
2024-05-09T12:46:00.416Z,17.97
2024-05-09T12:47:00.272Z,17.68
2024-05-09T12:48:00.495Z,17.51
2024-05-09T12:49:00.824Z,17.54
2024-05-09T12:50:00.409Z,17.59
2024-05-09T12:51:00.332Z,17.51
2024-05-09T12:52:00.517Z,17.38
2024-05-09T12:53:00.490Z,17.24
2024-05-09T12:54:00.405Z,17.22
2024-05-09T12:55:00.556Z,17.20
2024-05-09T12:56:02.523Z,17.22
2024-05-09T12:57:00.436Z,17.27
2024-05-09T12:58:00.561Z,17.24